createdAt,value
2019-06-27T00:01:05.149Z,100.00
2019-06-27T00:02:41.213Z,100.00
2019-06-27T00:04:18.400Z,100.00
2019-06-27T00:05:54.752Z,100.00
2019-06-27T00:07:30.882Z,100.00
2019-06-27T00:09:09.094Z,100.00
2019-06-27T00:10:45.244Z,100.00
2019-06-27T00:12:21.667Z,100.00
2019-06-27T00:13:58.182Z,100.00
2019-06-27T00:15:34.173Z,100.00
2019-06-27T00:17:11.682Z,100.00
2019-06-27T00:18:47.339Z,100.00
2019-06-27T00:20:25.472Z,100.00
2019-06-27T00:22:01.021Z,100.00
2019-06-27T00:23:37.245Z,100.00
2019-06-27T00:25:13.130Z,100.00
2019-06-27T00:26:57.239Z,100.00
2019-06-27T00:28:27.273Z,100.00
2019-06-27T00:30:05.280Z,100.00
2019-06-27T00:31:41.721Z,100.00
2019-06-27T00:33:18.539Z,100.00
2019-06-27T00:34:54.864Z,100.00
2019-06-27T00:36:31.543Z,100.00
2019-06-27T00:38:07.459Z,100.00
2019-06-27T00:39:44.343Z,100.00
2019-06-27T00:41:20.020Z,100.00
2019-06-27T00:42:56.953Z,100.00
2019-06-27T00:44:32.850Z,100.00
2019-06-27T00:46:09.161Z,100.00
2019-06-27T00:47:44.887Z,100.00
2019-06-27T00:49:21.910Z,100.00
2019-06-27T00:50:58.037Z,100.00
2019-06-27T00:52:34.966Z,100.00
2019-06-27T00:54:11.190Z,100.00
2019-06-27T00:55:47.162Z,100.00
2019-06-27T00:57:23.460Z,100.00
2019-06-27T00:59:00.147Z,100.00
2019-06-27T01:00:36.811Z,100.00
2019-06-27T01:02:14.214Z,100.00
2019-06-27T01:03:53.978Z,100.00
2019-06-27T01:05:31.247Z,100.00
2019-06-27T01:07:07.430Z,100.00
2019-06-27T01:08:44.234Z,100.00
2019-06-27T01:10:21.306Z,100.00
2019-06-27T01:11:57.736Z,100.00
2019-06-27T01:13:35.607Z,100.00
2019-06-27T01:15:16.210Z,100.00
2019-06-27T01:17:05.199Z,100.00
2019-06-27T01:18:40.983Z,100.00
2019-06-27T01:20:16.455Z,100.00
2019-06-27T01:21:53.115Z,100.00
2019-06-27T01:23:28.439Z,100.00
2019-06-27T01:25:04.329Z,100.00
2019-06-27T01:26:39.628Z,100.00
2019-06-27T01:28:15.781Z,100.00
2019-06-27T01:29:51.420Z,100.00
2019-06-27T01:31:27.221Z,100.00
2019-06-27T01:33:04.519Z,100.00
2019-06-27T01:34:40.320Z,100.00
2019-06-27T01:36:16.060Z,100.00
2019-06-27T01:37:52.096Z,100.00
2019-06-27T01:39:27.786Z,100.00
2019-06-27T01:41:03.596Z,100.00
2019-06-27T01:42:38.790Z,100.00
2019-06-27T01:44:32.092Z,100.00
2019-06-27T01:46:07.308Z,100.00
2019-06-27T01:47:43.244Z,100.00
2019-06-27T01:49:18.497Z,100.00
2019-06-27T01:50:54.442Z,100.00
2019-06-27T01:52:29.924Z,100.00
2019-06-27T01:54:05.715Z,100.00
2019-06-27T01:55:40.930Z,100.00
2019-06-27T01:57:16.983Z,100.00
2019-06-27T01:58:52.686Z,100.00
2019-06-27T02:00:28.702Z,100.00
2019-06-27T02:02:04.107Z,100.00
2019-06-27T02:03:40.333Z,100.00
2019-06-27T02:05:15.664Z,100.00
2019-06-27T02:06:51.971Z,100.00
2019-06-27T02:08:27.871Z,100.00
2019-06-27T02:10:04.996Z,100.00
2019-06-27T02:11:41.181Z,100.00
2019-06-27T02:13:16.985Z,100.00
2019-06-27T02:14:52.703Z,100.00
2019-06-27T02:16:28.865Z,100.00
2019-06-27T02:18:04.469Z,100.00
2019-06-27T02:19:40.237Z,100.00
2019-06-27T02:21:15.485Z,100.00
2019-06-27T02:22:51.479Z,100.00
2019-06-27T02:24:26.627Z,100.00
2019-06-27T02:26:02.476Z,100.00
2019-06-27T02:27:37.695Z,100.00
2019-06-27T02:29:13.875Z,100.00
2019-06-27T02:30:49.534Z,100.00
2019-06-27T02:32:25.436Z,100.00
2019-06-27T02:34:06.332Z,100.00
2019-06-27T02:35:39.304Z,100.00
2019-06-27T02:37:14.524Z,100.00
2019-06-27T02:38:52.749Z,100.00
2019-06-27T02:40:28.308Z,100.00
2019-06-27T02:42:04.026Z,100.00
2019-06-27T02:43:39.788Z,100.00
2019-06-27T02:45:18.933Z,100.00
2019-06-27T02:46:55.758Z,100.00
2019-06-27T02:48:31.932Z,100.00
2019-06-27T02:50:07.393Z,100.00
2019-06-27T02:51:43.326Z,100.00
2019-06-27T02:53:18.517Z,100.00
2019-06-27T02:54:54.588Z,100.00
2019-06-27T02:56:30.080Z,100.00
2019-06-27T02:58:27.982Z,100.00
2019-06-27T02:59:42.771Z,100.00
2019-06-27T03:01:18.804Z,100.00
2019-06-27T03:02:54.790Z,100.00
2019-06-27T03:04:30.964Z,100.00
2019-06-27T03:06:06.371Z,100.00
2019-06-27T03:07:42.809Z,100.00
2019-06-27T03:09:18.050Z,100.00
2019-06-27T03:10:54.244Z,100.00
2019-06-27T03:12:29.696Z,100.00
2019-06-27T03:14:05.795Z,100.00
2019-06-27T03:15:41.799Z,100.00
2019-06-27T03:17:17.487Z,100.00
2019-06-27T03:18:52.958Z,100.00
2019-06-27T03:20:28.694Z,100.00
2019-06-27T03:22:05.833Z,100.00
2019-06-27T03:23:41.755Z,100.00
2019-06-27T03:25:18.631Z,100.00
2019-06-27T03:26:54.737Z,100.00
2019-06-27T03:28:49.869Z,100.00
2019-06-27T03:30:08.735Z,100.00
2019-06-27T03:31:44.168Z,100.00
2019-06-27T03:33:20.390Z,100.00
2019-06-27T03:34:56.464Z,100.00
2019-06-27T03:36:32.620Z,100.00
2019-06-27T03:38:07.984Z,100.00
2019-06-27T03:39:44.860Z,100.00
2019-06-27T03:41:20.279Z,100.00
2019-06-27T03:42:56.145Z,100.00
2019-06-27T03:44:31.715Z,100.00
2019-06-27T03:46:07.856Z,100.00
2019-06-27T03:47:43.581Z,100.00
2019-06-27T03:49:19.894Z,100.00
2019-06-27T03:50:56.446Z,100.00
2019-06-27T03:52:32.721Z,100.00
2019-06-27T03:54:07.808Z,100.00
2019-06-27T03:55:44.465Z,100.00
2019-06-27T03:57:19.857Z,100.00
2019-06-27T03:59:11.474Z,100.00
2019-06-27T04:00:36.048Z,100.00
2019-06-27T04:02:12.717Z,100.00
2019-06-27T04:03:48.931Z,100.00
2019-06-27T04:05:25.119Z,100.00
2019-06-27T04:07:00.632Z,100.00
2019-06-27T04:08:36.484Z,100.00
2019-06-27T04:10:16.847Z,100.00
2019-06-27T04:11:49.293Z,100.00
2019-06-27T04:13:25.315Z,100.00
2019-06-27T04:15:01.127Z,100.00
2019-06-27T04:16:39.481Z,100.00
2019-06-27T04:18:15.255Z,100.00
2019-06-27T04:19:50.438Z,100.00
2019-06-27T04:21:26.508Z,100.00
2019-06-27T04:23:01.707Z,100.00
2019-06-27T04:24:37.519Z,100.00
2019-06-27T04:26:12.679Z,100.00
2019-06-27T04:27:48.670Z,100.00
2019-06-27T04:29:33.561Z,100.00
2019-06-27T04:31:02.368Z,100.00
2019-06-27T04:32:37.913Z,100.00
2019-06-27T04:34:13.619Z,100.00
2019-06-27T04:35:49.216Z,100.00
2019-06-27T04:37:25.399Z,100.00
2019-06-27T04:39:00.614Z,100.00
2019-06-27T04:40:36.446Z,100.00
2019-06-27T04:42:11.601Z,100.00
2019-06-27T04:43:47.388Z,100.00
2019-06-27T04:45:23.105Z,100.00
2019-06-27T04:47:01.403Z,100.00
2019-06-27T04:48:36.649Z,100.00
2019-06-27T04:50:12.404Z,100.00
2019-06-27T04:51:47.521Z,100.00
2019-06-27T04:53:24.113Z,100.00
2019-06-27T04:55:03.066Z,100.00
2019-06-27T04:56:36.638Z,100.00
2019-06-27T04:58:11.728Z,100.00
2019-06-27T04:59:53.795Z,100.00
2019-06-27T05:01:24.434Z,100.00
2019-06-27T05:03:00.271Z,100.00
2019-06-27T05:04:35.481Z,100.00
2019-06-27T05:06:11.441Z,100.00
2019-06-27T05:07:46.934Z,100.00
2019-06-27T05:09:23.165Z,100.00
2019-06-27T05:10:58.292Z,100.00
2019-06-27T05:12:34.446Z,100.00
2019-06-27T05:14:09.521Z,100.00
2019-06-27T05:15:45.771Z,100.00
2019-06-27T05:17:22.292Z,100.00
2019-06-27T05:18:58.162Z,100.00
2019-06-27T05:20:34.111Z,100.00
2019-06-27T05:22:10.296Z,100.00
2019-06-27T05:23:45.724Z,100.00
2019-06-27T05:25:21.541Z,100.00
2019-06-27T05:26:56.791Z,100.00
2019-06-27T05:28:32.609Z,100.00
2019-06-27T05:30:10.284Z,100.00
2019-06-27T05:31:45.886Z,100.00
2019-06-27T05:33:21.983Z,100.00
2019-06-27T05:34:57.985Z,100.00
2019-06-27T05:36:33.461Z,100.00
2019-06-27T05:38:09.876Z,100.00
2019-06-27T05:39:46.961Z,100.00
2019-06-27T05:41:23.257Z,100.00
2019-06-27T05:42:58.724Z,100.00
2019-06-27T05:44:34.572Z,100.00
2019-06-27T05:46:10.140Z,100.00
2019-06-27T05:47:46.078Z,100.00
2019-06-27T05:49:22.633Z,100.00
2019-06-27T05:51:00.081Z,100.00
2019-06-27T05:52:35.638Z,100.00
2019-06-27T05:54:12.204Z,100.00
2019-06-27T05:55:47.588Z,100.00
2019-06-27T05:57:23.886Z,100.00
2019-06-27T05:58:59.186Z,100.00
2019-06-27T06:00:36.153Z,100.00
2019-06-27T06:02:11.980Z,100.00
2019-06-27T06:03:48.373Z,100.00
2019-06-27T06:05:25.536Z,100.00
2019-06-27T06:07:01.513Z,100.00
2019-06-27T06:08:37.244Z,100.00
2019-06-27T06:10:13.377Z,100.00
2019-06-27T06:11:49.001Z,100.00
2019-06-27T06:13:24.931Z,100.00
2019-06-27T06:15:01.194Z,100.00
2019-06-27T06:16:37.550Z,100.00
2019-06-27T06:18:13.370Z,100.00
2019-06-27T06:19:49.227Z,100.00
2019-06-27T06:21:25.146Z,100.00
2019-06-27T06:23:02.867Z,100.00
2019-06-27T06:24:38.752Z,100.00
2019-06-27T06:26:20.638Z,100.00
2019-06-27T06:27:59.983Z,100.00
2019-06-27T06:29:36.155Z,100.00
2019-06-27T06:31:13.327Z,100.00
2019-06-27T06:32:51.208Z,100.00
2019-06-27T06:34:32.712Z,100.00
2019-06-27T06:36:10.029Z,100.00
2019-06-27T06:37:48.163Z,100.00
2019-06-27T06:39:35.423Z,100.00
2019-06-27T06:41:13.071Z,100.00
2019-06-27T06:42:50.945Z,100.00
2019-06-27T06:44:26.886Z,100.00
2019-06-27T06:46:02.785Z,100.00
2019-06-27T06:47:39.333Z,100.00
2019-06-27T06:49:16.996Z,100.00
2019-06-27T06:50:53.955Z,100.00
2019-06-27T06:52:30.229Z,100.00
2019-06-27T06:54:06.757Z,100.00
2019-06-27T06:55:43.039Z,100.00
2019-06-27T06:57:20.442Z,100.00
2019-06-27T06:58:56.889Z,100.00
2019-06-27T07:00:38.119Z,100.00
2019-06-27T07:02:16.717Z,100.00
2019-06-27T07:03:53.775Z,100.00
2019-06-27T07:05:31.034Z,100.00
2019-06-27T07:07:07.546Z,100.00
2019-06-27T07:08:43.787Z,100.00
2019-06-27T07:10:20.408Z,100.00
2019-06-27T07:11:56.408Z,100.00
2019-06-27T07:13:32.655Z,100.00
2019-06-27T07:15:09.173Z,100.00
2019-06-27T07:16:46.855Z,100.00
2019-06-27T07:18:23.330Z,100.00
2019-06-27T07:19:59.142Z,100.00
2019-06-27T07:21:35.100Z,100.00
2019-06-27T07:23:11.442Z,100.00
2019-06-27T07:24:46.817Z,100.00
2019-06-27T07:26:22.975Z,100.00
2019-06-27T07:27:58.533Z,100.00
2019-06-27T07:29:35.044Z,100.00
2019-06-27T07:31:17.817Z,100.00
2019-06-27T07:32:49.206Z,100.00
2019-06-27T07:34:24.905Z,100.00
2019-06-27T07:36:01.344Z,100.00
2019-06-27T07:37:36.827Z,100.00
2019-06-27T07:39:12.784Z,100.00
2019-06-27T07:40:48.005Z,100.00
2019-06-27T07:42:24.358Z,100.00
2019-06-27T07:44:01.427Z,100.00
2019-06-27T07:45:38.009Z,100.00
2019-06-27T07:47:13.316Z,100.00
2019-06-27T07:48:49.320Z,100.00
2019-06-27T07:50:24.846Z,100.00
2019-06-27T07:52:00.836Z,100.00
2019-06-27T07:53:36.047Z,100.00
2019-06-27T07:55:11.846Z,100.00
2019-06-27T07:56:47.138Z,100.00
2019-06-27T07:58:23.199Z,100.00
2019-06-27T07:59:58.387Z,100.00
2019-06-27T08:01:35.918Z,100.00
2019-06-27T08:03:11.403Z,100.00
2019-06-27T08:04:48.299Z,100.00
2019-06-27T08:06:26.721Z,100.00
2019-06-27T08:08:02.863Z,100.00
2019-06-27T08:09:38.077Z,100.00
2019-06-27T08:11:16.343Z,100.00
2019-06-27T08:12:51.992Z,100.00
2019-06-27T08:14:27.851Z,100.00
2019-06-27T08:16:03.558Z,100.00
2019-06-27T08:17:39.646Z,100.00
2019-06-27T08:19:17.065Z,100.00
2019-06-27T08:20:53.034Z,100.00
2019-06-27T08:22:28.718Z,100.00
2019-06-27T08:24:07.605Z,100.00
2019-06-27T08:25:43.872Z,100.00
2019-06-27T08:27:22.697Z,100.00
2019-06-27T08:28:58.903Z,100.00
2019-06-27T08:30:37.508Z,100.00
2019-06-27T08:32:14.092Z,100.00
2019-06-27T08:33:51.731Z,100.00
2019-06-27T08:35:28.289Z,100.00
2019-06-27T08:37:04.379Z,100.00
2019-06-27T08:38:39.660Z,100.00
2019-06-27T08:40:16.303Z,100.00
2019-06-27T08:41:52.449Z,100.00
2019-06-27T08:43:30.317Z,100.00
2019-06-27T08:45:09.531Z,100.00
2019-06-27T08:46:45.826Z,100.00
2019-06-27T08:48:25.548Z,100.00
2019-06-27T08:50:03.237Z,100.00
2019-06-27T08:51:39.047Z,100.00
2019-06-27T08:53:17.220Z,100.00
2019-06-27T08:54:53.827Z,100.00
2019-06-27T08:56:30.198Z,100.00
2019-06-27T08:58:07.960Z,100.00
2019-06-27T08:59:45.719Z,100.00
2019-06-27T09:01:21.529Z,100.00
2019-06-27T09:02:57.867Z,100.00
2019-06-27T09:04:33.424Z,100.00
2019-06-27T09:06:12.403Z,100.00
2019-06-27T09:07:48.590Z,100.00
2019-06-27T09:09:25.936Z,100.00
2019-06-27T09:11:02.328Z,100.00
2019-06-27T09:12:38.243Z,100.00
2019-06-27T09:14:14.149Z,100.00
2019-06-27T09:15:50.885Z,100.00
2019-06-27T09:17:28.206Z,100.00
2019-06-27T09:19:04.320Z,100.00
2019-06-27T09:20:40.263Z,100.00
2019-06-27T09:22:16.955Z,100.00
2019-06-27T09:23:52.698Z,100.00
2019-06-27T09:25:30.794Z,100.00
2019-06-27T09:27:09.303Z,100.00
2019-06-27T09:28:46.535Z,100.00
2019-06-27T09:30:24.340Z,100.00
2019-06-27T09:32:00.570Z,100.00
2019-06-27T09:33:36.890Z,90.69
2019-06-27T09:35:16.467Z,97.43
2019-06-27T09:36:52.047Z,78.97
2019-06-27T09:38:29.219Z,88.99
2019-06-27T09:40:08.849Z,88.50
2019-06-27T09:41:45.773Z,89.69
2019-06-27T09:43:22.411Z,100.00
2019-06-27T09:45:00.509Z,95.03
2019-06-27T09:46:35.915Z,91.29
2019-06-27T09:48:13.521Z,85.60
2019-06-27T09:49:50.291Z,79.98
2019-06-27T09:51:28.167Z,72.11
2019-06-27T09:53:04.328Z,84.56
2019-06-27T09:54:42.229Z,87.19
2019-06-27T09:56:19.609Z,78.01
2019-06-27T09:57:59.686Z,79.23
2019-06-27T09:59:36.054Z,74.22
2019-06-27T10:01:12.997Z,78.53
2019-06-27T10:02:48.965Z,89.46
2019-06-27T10:04:25.229Z,98.66
2019-06-27T10:06:02.504Z,94.56
2019-06-27T10:07:39.299Z,87.12
2019-06-27T10:09:16.089Z,90.98
2019-06-27T10:10:53.276Z,100.00
2019-06-27T10:12:41.653Z,98.61
2019-06-27T10:14:10.691Z,100.00
2019-06-27T10:15:46.563Z,100.00
2019-06-27T10:17:32.326Z,100.00
2019-06-27T10:19:10.973Z,100.00
2019-06-27T10:20:50.685Z,100.00
2019-06-27T10:22:28.957Z,100.00
2019-06-27T10:24:05.957Z,100.00
2019-06-27T10:25:42.816Z,96.81
2019-06-27T10:27:19.284Z,100.00
2019-06-27T10:28:55.903Z,93.87
2019-06-27T10:30:31.803Z,88.99
2019-06-27T10:32:08.455Z,91.22
2019-06-27T10:33:44.164Z,87.31
2019-06-27T10:35:22.794Z,72.37
2019-06-27T10:36:58.911Z,86.32
2019-06-27T10:38:36.108Z,80.48
2019-06-27T10:40:19.573Z,86.34
2019-06-27T10:41:57.738Z,84.18
2019-06-27T10:43:34.498Z,94.37
2019-06-27T10:45:11.496Z,100.00
2019-06-27T10:46:48.918Z,78.64
2019-06-27T10:48:31.146Z,94.28
2019-06-27T10:50:09.059Z,100.00
2019-06-27T10:51:45.860Z,92.05
2019-06-27T10:53:21.471Z,92.14
2019-06-27T10:54:57.737Z,90.50
2019-06-27T10:56:38.799Z,83.74
2019-06-27T10:58:13.150Z,76.89
2019-06-27T10:59:51.030Z,78.49
2019-06-27T11:01:27.675Z,68.67
2019-06-27T11:03:15.009Z,69.07
2019-06-27T11:04:42.161Z,73.93
2019-06-27T11:06:18.773Z,74.73
2019-06-27T11:07:59.478Z,69.87
2019-06-27T11:09:38.815Z,71.71
2019-06-27T11:11:14.390Z,79.79
2019-06-27T11:12:50.827Z,74.31
2019-06-27T11:14:29.030Z,67.82
2019-06-27T11:16:06.588Z,71.69
2019-06-27T11:17:43.251Z,68.48
2019-06-27T11:19:19.737Z,74.74
2019-06-27T11:20:56.748Z,75.37
2019-06-27T11:22:33.746Z,74.27
2019-06-27T11:24:11.232Z,85.96
2019-06-27T11:25:48.833Z,79.86
2019-06-27T11:27:27.422Z,73.91
2019-06-27T11:29:07.330Z,72.58
2019-06-27T11:30:45.415Z,85.70
2019-06-27T11:32:22.703Z,74.59
2019-06-27T11:33:59.782Z,71.38
2019-06-27T11:35:38.158Z,71.94
2019-06-27T11:37:17.395Z,63.98
2019-06-27T11:38:57.686Z,68.73
2019-06-27T11:40:35.565Z,60.33
2019-06-27T11:42:13.936Z,62.41
2019-06-27T11:43:51.681Z,60.82
2019-06-27T11:45:29.641Z,61.29
2019-06-27T11:47:07.324Z,66.37
2019-06-27T11:48:44.523Z,70.03
2019-06-27T11:50:21.253Z,71.55
2019-06-27T11:51:59.237Z,64.85
2019-06-27T11:53:36.024Z,64.19
2019-06-27T11:55:14.652Z,81.28
2019-06-27T11:56:52.178Z,79.27
2019-06-27T11:58:32.635Z,87.88
2019-06-27T12:00:18.752Z,82.35
2019-06-27T12:01:57.258Z,78.11
2019-06-27T12:03:48.760Z,75.97
2019-06-27T12:05:15.314Z,86.11
2019-06-27T12:06:54.882Z,82.23
2019-06-27T12:08:32.575Z,68.63
2019-06-27T12:10:09.582Z,74.19
2019-06-27T12:11:46.959Z,77.01
2019-06-27T12:13:24.349Z,84.81
2019-06-27T12:15:08.203Z,89.05
2019-06-27T12:16:47.745Z,99.02
2019-06-27T12:18:29.588Z,74.08
2019-06-27T12:20:10.257Z,66.02
2019-06-27T12:21:51.086Z,63.54
2019-06-27T12:23:30.347Z,77.26
2019-06-27T12:25:09.056Z,86.62
2019-06-27T12:26:47.036Z,74.46
2019-06-27T12:28:24.043Z,85.49
2019-06-27T12:30:00.489Z,92.89
2019-06-27T12:31:36.207Z,92.46
2019-06-27T12:33:15.013Z,80.91
2019-06-27T12:34:52.429Z,75.11
2019-06-27T12:36:31.811Z,79.23
2019-06-27T12:38:09.674Z,89.18
2019-06-27T12:39:48.857Z,78.76
2019-06-27T12:41:25.870Z,75.19
2019-06-27T12:43:06.769Z,81.66
2019-06-27T12:44:46.773Z,62.01
2019-06-27T12:46:24.375Z,61.31
2019-06-27T12:48:06.888Z,67.47
2019-06-27T12:50:00.819Z,73.50
2019-06-27T12:51:22.371Z,73.85
2019-06-27T12:52:59.411Z,72.61
2019-06-27T12:54:38.775Z,71.56
2019-06-27T12:56:18.760Z,71.34
2019-06-27T12:57:58.241Z,79.22
2019-06-27T12:59:35.128Z,69.42
2019-06-27T13:01:15.728Z,61.06
2019-06-27T13:02:52.849Z,68.11
2019-06-27T13:04:31.818Z,73.60
2019-06-27T13:06:07.670Z,71.67
2019-06-27T13:07:45.707Z,62.10
2019-06-27T13:09:21.766Z,65.33
2019-06-27T13:11:00.953Z,60.00
2019-06-27T13:12:37.091Z,56.79
2019-06-27T13:14:16.012Z,70.09
2019-06-27T13:15:53.819Z,66.16
2019-06-27T13:17:32.649Z,64.04
2019-06-27T13:19:12.175Z,67.97
2019-06-27T13:20:57.655Z,73.53
2019-06-27T13:22:28.588Z,75.59
2019-06-27T13:24:10.522Z,66.14
2019-06-27T13:25:52.362Z,59.55
2019-06-27T13:27:30.204Z,62.58
2019-06-27T13:29:06.733Z,58.20
2019-06-27T13:30:43.874Z,60.74
2019-06-27T13:32:20.389Z,63.47
2019-06-27T13:34:00.904Z,60.25
2019-06-27T13:35:37.226Z,64.71
2019-06-27T13:37:13.130Z,68.32
2019-06-27T13:38:49.942Z,67.98
2019-06-27T13:40:28.021Z,75.24
2019-06-27T13:42:06.538Z,69.42
2019-06-27T13:43:51.433Z,64.85
2019-06-27T13:45:30.618Z,72.40
2019-06-27T13:47:08.162Z,64.20
2019-06-27T13:48:44.288Z,67.04
2019-06-27T13:50:22.714Z,75.83
2019-06-27T13:51:59.211Z,87.32
2019-06-27T13:53:40.465Z,89.09
2019-06-27T13:55:23.587Z,71.03
2019-06-27T13:56:57.100Z,67.74
2019-06-27T13:58:34.898Z,63.47
2019-06-27T14:00:17.999Z,63.14
2019-06-27T14:01:54.093Z,66.03
2019-06-27T14:03:44.862Z,68.25
2019-06-27T14:05:09.717Z,65.09
2019-06-27T14:06:49.431Z,70.87
2019-06-27T14:08:28.891Z,70.94
2019-06-27T14:10:05.497Z,71.44
2019-06-27T14:11:42.533Z,68.67
2019-06-27T14:13:22.377Z,78.18
2019-06-27T14:15:00.556Z,80.94
2019-06-27T14:16:36.433Z,84.85
2019-06-27T14:18:25.296Z,82.92
2019-06-27T14:20:02.747Z,90.42
2019-06-27T14:21:39.341Z,98.19
2019-06-27T14:23:20.086Z,93.39
2019-06-27T14:24:56.260Z,88.47
2019-06-27T14:26:37.221Z,91.87
2019-06-27T14:28:18.343Z,100.00
2019-06-27T14:30:05.894Z,92.39
2019-06-27T14:31:45.940Z,98.81
2019-06-27T14:33:22.231Z,87.09
2019-06-27T14:35:14.681Z,100.00
2019-06-27T14:36:41.201Z,100.00
2019-06-27T14:38:22.609Z,96.45
2019-06-27T14:39:59.691Z,95.34
2019-06-27T14:41:46.188Z,97.58
2019-06-27T14:43:23.923Z,93.72
2019-06-27T14:45:00.435Z,90.56
2019-06-27T14:46:37.461Z,94.26
2019-06-27T14:48:16.366Z,91.98
2019-06-27T14:49:54.075Z,88.12
2019-06-27T14:51:31.716Z,87.56
2019-06-27T14:53:08.325Z,93.57
2019-06-27T14:54:47.357Z,97.17
2019-06-27T14:56:24.868Z,97.96
2019-06-27T14:58:02.108Z,93.32
2019-06-27T14:59:41.356Z,93.72
2019-06-27T15:01:17.796Z,90.51
2019-06-27T15:02:55.988Z,94.48
2019-06-27T15:04:33.575Z,85.22
2019-06-27T15:06:12.498Z,84.39
2019-06-27T15:07:50.654Z,94.69
2019-06-27T15:09:29.223Z,95.09
2019-06-27T15:11:05.767Z,94.68
2019-06-27T15:12:56.466Z,90.60
2019-06-27T15:14:23.611Z,95.11
2019-06-27T15:16:11.962Z,100.00
2019-06-27T15:17:45.305Z,97.13
2019-06-27T15:19:28.270Z,100.00
2019-06-27T15:21:07.523Z,96.63
2019-06-27T15:22:46.570Z,99.74
2019-06-27T15:24:26.104Z,95.37
2019-06-27T15:26:03.410Z,93.32
2019-06-27T15:27:43.070Z,96.06
2019-06-27T15:29:23.965Z,100.00
2019-06-27T15:31:00.985Z,94.82
2019-06-27T15:32:38.976Z,87.50
2019-06-27T15:34:20.114Z,94.03
2019-06-27T15:36:04.019Z,99.88
2019-06-27T15:37:41.476Z,100.00
2019-06-27T15:39:22.554Z,100.00
2019-06-27T15:41:04.522Z,100.00
2019-06-27T15:42:45.059Z,100.00
2019-06-27T15:44:24.969Z,100.00
2019-06-27T15:46:01.707Z,100.00
2019-06-27T15:47:40.094Z,100.00
2019-06-27T15:49:16.118Z,100.00
2019-06-27T15:50:56.472Z,100.00
2019-06-27T15:52:34.499Z,100.00
2019-06-27T15:54:13.902Z,100.00
2019-06-27T15:55:50.673Z,100.00
2019-06-27T15:57:27.916Z,100.00
2019-06-27T15:59:08.006Z,100.00
2019-06-27T16:00:45.420Z,100.00
2019-06-27T16:02:23.902Z,100.00
2019-06-27T16:04:01.922Z,100.00
2019-06-27T16:05:42.698Z,100.00
2019-06-27T16:07:23.382Z,100.00
2019-06-27T16:09:01.191Z,100.00
2019-06-27T16:10:37.671Z,100.00
2019-06-27T16:12:14.352Z,100.00
2019-06-27T16:13:53.338Z,100.00
2019-06-27T16:15:33.862Z,100.00
2019-06-27T16:17:12.192Z,100.00
2019-06-27T16:19:00.824Z,100.00
2019-06-27T16:20:38.422Z,100.00
2019-06-27T16:22:16.342Z,100.00
2019-06-27T16:24:00.235Z,100.00
2019-06-27T16:25:39.592Z,100.00
2019-06-27T16:27:16.031Z,100.00
2019-06-27T16:28:52.766Z,100.00
2019-06-27T16:30:31.203Z,100.00
2019-06-27T16:32:07.302Z,100.00
2019-06-27T16:33:48.455Z,100.00
2019-06-27T16:35:24.060Z,100.00
2019-06-27T16:37:04.573Z,100.00
2019-06-27T16:38:40.221Z,100.00
2019-06-27T16:40:19.404Z,100.00
2019-06-27T16:41:55.224Z,100.00
2019-06-27T16:43:33.096Z,100.00
2019-06-27T16:45:10.354Z,100.00
2019-06-27T16:46:49.379Z,100.00
2019-06-27T16:48:27.604Z,100.00
2019-06-27T16:50:05.630Z,100.00
2019-06-27T16:51:42.626Z,100.00
2019-06-27T16:53:19.743Z,100.00
2019-06-27T16:54:58.139Z,100.00
2019-06-27T16:56:35.410Z,100.00
2019-06-27T16:58:17.340Z,100.00
2019-06-27T16:59:56.757Z,100.00
2019-06-27T17:01:35.646Z,100.00
2019-06-27T17:03:11.647Z,100.00
2019-06-27T17:04:47.591Z,100.00
2019-06-27T17:06:37.639Z,100.00
2019-06-27T17:08:04.559Z,100.00
2019-06-27T17:09:40.497Z,100.00
2019-06-27T17:11:18.427Z,100.00
2019-06-27T17:12:54.875Z,100.00
2019-06-27T17:14:30.560Z,100.00
2019-06-27T17:16:06.786Z,100.00
2019-06-27T17:17:42.878Z,100.00
2019-06-27T17:19:19.473Z,100.00
2019-06-27T17:20:54.921Z,100.00
2019-06-27T17:22:31.275Z,100.00
2019-06-27T17:24:06.853Z,100.00
2019-06-27T17:25:43.040Z,100.00
2019-06-27T17:27:21.998Z,100.00
2019-06-27T17:28:57.966Z,100.00
2019-06-27T17:30:36.129Z,100.00
2019-06-27T17:32:15.488Z,100.00
2019-06-27T17:33:50.980Z,100.00
2019-06-27T17:35:28.613Z,100.00
2019-06-27T17:37:05.586Z,100.00
2019-06-27T17:38:44.520Z,100.00
2019-06-27T17:40:20.966Z,100.00
2019-06-27T17:41:59.003Z,100.00
2019-06-27T17:43:36.974Z,100.00
2019-06-27T17:45:16.498Z,100.00
2019-06-27T17:46:52.997Z,100.00
2019-06-27T17:48:29.818Z,100.00
2019-06-27T17:50:06.179Z,100.00
2019-06-27T17:51:44.730Z,100.00
2019-06-27T17:53:21.313Z,100.00
2019-06-27T17:55:00.473Z,100.00
2019-06-27T17:56:39.546Z,100.00
2019-06-27T17:58:16.599Z,100.00
2019-06-27T17:59:53.587Z,100.00
2019-06-27T18:01:32.163Z,100.00
2019-06-27T18:03:09.638Z,100.00
2019-06-27T18:04:47.725Z,100.00
2019-06-27T18:06:28.752Z,100.00
2019-06-27T18:08:07.587Z,100.00
2019-06-27T18:09:45.086Z,100.00
2019-06-27T18:11:26.240Z,100.00
2019-06-27T18:13:10.062Z,100.00
2019-06-27T18:14:46.754Z,100.00
2019-06-27T18:16:23.514Z,100.00
2019-06-27T18:18:00.504Z,100.00
2019-06-27T18:19:41.490Z,100.00
2019-06-27T18:21:30.727Z,100.00
2019-06-27T18:23:09.626Z,100.00
2019-06-27T18:24:46.203Z,100.00
2019-06-27T18:26:22.756Z,100.00
2019-06-27T18:28:00.105Z,100.00
2019-06-27T18:29:39.252Z,100.00
2019-06-27T18:31:15.560Z,100.00
2019-06-27T18:32:53.615Z,100.00
2019-06-27T18:34:32.313Z,100.00
2019-06-27T18:36:09.277Z,100.00
2019-06-27T18:37:50.761Z,100.00
2019-06-27T18:39:28.639Z,100.00
2019-06-27T18:41:04.841Z,100.00
2019-06-27T18:42:49.351Z,100.00
2019-06-27T18:44:28.429Z,100.00
2019-06-27T18:46:07.211Z,100.00
2019-06-27T18:47:43.121Z,100.00
2019-06-27T18:49:19.138Z,100.00
2019-06-27T18:50:58.070Z,100.00
2019-06-27T18:52:34.194Z,100.00
2019-06-27T18:54:14.796Z,100.00
2019-06-27T18:55:51.209Z,100.00
2019-06-27T18:57:29.202Z,100.00
2019-06-27T18:59:09.250Z,100.00
2019-06-27T19:00:50.016Z,100.00
2019-06-27T19:02:25.394Z,100.00
2019-06-27T19:04:01.672Z,100.00
2019-06-27T19:05:37.951Z,100.00
2019-06-27T19:07:16.467Z,100.00
2019-06-27T19:08:52.369Z,100.00
2019-06-27T19:10:31.197Z,100.00
2019-06-27T19:12:06.996Z,100.00
2019-06-27T19:13:54.401Z,100.00
2019-06-27T19:15:32.399Z,100.00
2019-06-27T19:17:15.170Z,100.00
2019-06-27T19:19:01.299Z,100.00
2019-06-27T19:20:42.038Z,100.00
2019-06-27T19:22:39.550Z,100.00
2019-06-27T19:24:40.952Z,100.00
2019-06-27T19:26:18.492Z,100.00
2019-06-27T19:27:58.820Z,100.00
2019-06-27T19:29:36.875Z,100.00
2019-06-27T19:31:16.229Z,100.00
2019-06-27T19:32:52.912Z,100.00
2019-06-27T19:34:33.205Z,100.00
2019-06-27T19:36:10.837Z,100.00
2019-06-27T19:38:01.864Z,100.00
2019-06-27T19:39:34.865Z,100.00
2019-06-27T19:41:31.715Z,100.00
2019-06-27T19:43:08.335Z,100.00
2019-06-27T19:44:45.489Z,100.00
2019-06-27T19:46:23.090Z,100.00
2019-06-27T19:48:27.080Z,100.00
2019-06-27T19:50:22.335Z,100.00
2019-06-27T19:51:59.395Z,100.00
2019-06-27T19:53:36.733Z,100.00
2019-06-27T19:55:14.054Z,100.00
2019-06-27T19:56:49.795Z,100.00
2019-06-27T19:58:32.091Z,100.00
2019-06-27T20:00:19.235Z,100.00
2019-06-27T20:02:01.871Z,100.00
2019-06-27T20:03:42.502Z,100.00
2019-06-27T20:05:21.289Z,100.00
2019-06-27T20:06:58.210Z,100.00
2019-06-27T20:08:36.353Z,100.00
2019-06-27T20:10:16.534Z,100.00
2019-06-27T20:11:55.181Z,100.00
2019-06-27T20:13:32.348Z,100.00
2019-06-27T20:15:10.335Z,100.00
2019-06-27T20:16:51.366Z,100.00
2019-06-27T20:18:28.742Z,100.00
2019-06-27T20:20:06.920Z,100.00
2019-06-27T20:21:42.336Z,100.00
2019-06-27T20:23:23.242Z,100.00
2019-06-27T20:24:59.145Z,100.00
2019-06-27T20:26:36.060Z,100.00
2019-06-27T20:28:11.519Z,100.00